LRBS/BBU METAR and TAF weather

Enter ICAO airport designator
Station Type Date Time Source
LRBS METAR 2021/09/24 00:30 UTC NOAA

LRBS 240030Z AUTO 27003KT 9999 NCD 07/05 Q1018 NOSIG


Station Type Date Time Source
LRBS Decoded METAR 2021/09/24 00:30 UTC NOAA

Bucuresti / Imh, Romania (LRBS) 44-30N 026-08E 91M
Sep 23, 2021 - 08:30 PM EDT / 2021.09.24 0030 UTC
Wind: from the W (270 degrees) at 3 MPH (3 KT):0
Visibility: greater than 7 mile(s):0
Temperature: 44 F (7 C)
Dew Point: 41 F (5 C)
Relative Humidity: 87%
Pressure (altimeter): 30.06 in. Hg (1018 hPa)
ob: LRBS 240030Z AUTO 27003KT 9999 NCD 07/05 Q1018 NOSIG
cycle: 0

Station Type Date Time Source
LRBS TAF 2021/09/23 18:37 UTC NOAA

TAF LRBS 231700Z 2318/2418 VRB04KT CAVOK
BECMG 2404/2406 24012KT PROB30
TEMPO 2408/2412 26015G25KT
BECMG 2416/2418 VRB04KT

Example: see airport list